sensor_id;sensor_type;location;lat;lon;timestamp;temperature;humidity
12655;DHT22;6392;44.644;11.448;2022-12-18T00:00:46;7.70;99.90
12655;DHT22;6392;44.644;11.448;2022-12-18T00:03:13;7.70;99.90
12655;DHT22;6392;44.644;11.448;2022-12-18T00:05:46;7.70;99.90
12655;DHT22;6392;44.644;11.448;2022-12-18T00:08:14;7.60;99.90
12655;DHT22;6392;44.644;11.448;2022-12-18T00:10:41;7.50;99.90
12655;DHT22;6392;44.644;11.448;2022-12-18T00:13:10;7.60;99.90
12655;DHT22;6392;44.644;11.448;2022-12-18T00:15:38;7.60;99.90
12655;DHT22;6392;44.644;11.448;2022-12-18T00:18:06;7.60;99.90
12655;DHT22;6392;44.644;11.448;2022-12-18T00:20:36;7.60;99.90
12655;DHT22;6392;44.644;11.448;2022-12-18T00:23:04;7.50;99.90
12655;DHT22;6392;44.644;11.448;2022-12-18T00:25:32;7.50;99.90
12655;DHT22;6392;44.644;11.448;2022-12-18T00:28:00;7.50;99.90
12655;DHT22;6392;44.644;11.448;2022-12-18T00:30:28;7.50;99.90
12655;DHT22;6392;44.644;11.448;2022-12-18T00:32:56;7.50;99.90
12655;DHT22;6392;44.644;11.448;2022-12-18T00:35:23;7.50;99.90
12655;DHT22;6392;44.644;11.448;2022-12-18T00:37:50;7.50;99.90
12655;DHT22;6392;44.644;11.448;2022-12-18T00:40:17;7.40;99.90
12655;DHT22;6392;44.644;11.448;2022-12-18T00:42:44;7.40;99.90
12655;DHT22;6392;44.644;11.448;2022-12-18T00:45:24;7.40;99.90
12655;DHT22;6392;44.644;11.448;2022-12-18T00:47:53;7.40;99.90
12655;DHT22;6392;44.644;11.448;2022-12-18T00:50:21;7.40;99.90
12655;DHT22;6392;44.644;11.448;2022-12-18T00:52:48;7.30;99.90
12655;DHT22;6392;44.644;11.448;2022-12-18T00:55:15;7.30;99.90
12655;DHT22;6392;44.644;11.448;2022-12-18T00:57:42;7.30;99.90
12655;DHT22;6392;44.644;11.448;2022-12-18T01:00:12;7.30;99.90
12655;DHT22;6392;44.644;11.448;2022-12-18T01:02:40;7.30;99.90
12655;DHT22;6392;44.644;11.448;2022-12-18T01:05:10;7.20;99.90
12655;DHT22;6392;44.644;11.448;2022-12-18T01:07:38;7.20;99.90
12655;DHT22;6392;44.644;11.448;2022-12-18T01:10:06;7.20;99.90
12655;DHT22;6392;44.644;11.448;2022-12-18T01:12:33;7.20;99.90
12655;DHT22;6392;44.644;11.448;2022-12-18T01:15:01;7.20;99.90
12655;DHT22;6392;44.644;11.448;2022-12-18T01:17:28;7.20;99.90
12655;DHT22;6392;44.644;11.448;2022-12-18T01:19:54;7.10;99.90
12655;DHT22;6392;44.644;11.448;2022-12-18T01:22:23;7.20;99.90
12655;DHT22;6392;44.644;11.448;2022-12-18T01:24:50;7.20;99.90
12655;DHT22;6392;44.644;11.448;2022-12-18T01:27:17;7.20;99.90
12655;DHT22;6392;44.644;11.448;2022-12-18T01:29:44;7.20;99.90
12655;DHT22;6392;44.644;11.448;2022-12-18T01:32:11;7.20;99.90
12655;DHT22;6392;44.644;11.448;2022-12-18T01:34:38;7.10;99.90
12655;DHT22;6392;44.644;11.448;2022-12-18T01:37:05;7.10;99.90
12655;DHT22;6392;44.644;11.448;2022-12-18T01:39:34;7.10;99.90
12655;DHT22;6392;44.644;11.448;2022-12-18T01:42:02;7.10;99.90
12655;DHT22;6392;44.644;11.448;2022-12-18T01:45:03;7.10;99.90
12655;DHT22;6392;44.644;11.448;2022-12-18T01:47:34;7.10;99.90
12655;DHT22;6392;44.644;11.448;2022-12-18T01:50:05;7.10;99.90
12655;DHT22;6392;44.644;11.448;2022-12-18T01:52:34;7.10;99.90
12655;DHT22;6392;44.644;11.448;2022-12-18T01:55:05;7.10;99.90
12655;DHT22;6392;44.644;11.448;2022-12-18T01:57:33;7.00;99.90
12655;DHT22;6392;44.644;11.448;2022-12-18T02:00:03;7.10;99.90
12655;DHT22;6392;44.644;11.448;2022-12-18T02:02:31;7.10;99.90
12655;DHT22;6392;44.644;11.448;2022-12-18T02:04:58;7.00;99.90
12655;DHT22;6392;44.644;11.448;2022-12-18T02:07:32;7.00;99.90
12655;DHT22;6392;44.644;11.448;2022-12-18T02:10:06;7.10;99.90
12655;DHT22;6392;44.644;11.448;2022-12-18T02:12:42;7.00;99.90
12655;DHT22;6392;44.644;11.448;2022-12-18T02:15:15;7.00;99.90
12655;DHT22;6392;44.644;11.448;2022-12-18T02:17:48;7.00;99.90
12655;DHT22;6392;44.644;11.448;2022-12-18T02:20:20;7.00;99.90
12655;DHT22;6392;44.644;11.448;2022-12-18T02:23:04;7.00;99.90
12655;DHT22;6392;44.644;11.448;2022-12-18T02:28:15;7.00;99.90
12655;DHT22;6392;44.644;11.448;2022-12-18T02:30:46;6.90;99.90
12655;DHT22;6392;44.644;11.448;2022-12-18T02:33:14;6.90;99.90
12655;DHT22;6392;44.644;11.448;2022-12-18T02:35:42;6.90;99.90
12655;DHT22;6392;44.644;11.448;2022-12-18T02:38:11;6.90;99.90
12655;DHT22;6392;44.644;11.448;2022-12-18T02:40:39;6.90;99.90
12655;DHT22;6392;44.644;11.448;2022-12-18T02:43:08;6.90;99.90
12655;DHT22;6392;44.644;11.448;2022-12-18T02:45:45;6.90;99.90
12655;DHT22;6392;44.644;11.448;2022-12-18T02:48:13;6.90;99.90
12655;DHT22;6392;44.644;11.448;2022-12-18T02:50:47;6.90;99.90
12655;DHT22;6392;44.644;11.448;2022-12-18T02:53:21;6.80;99.90
12655;DHT22;6392;44.644;11.448;2022-12-18T02:55:57;6.80;99.90
12655;DHT22;6392;44.644;11.448;2022-12-18T02:58:30;6.80;99.90
12655;DHT22;6392;44.644;11.448;2022-12-18T03:01:03;6.80;99.90
12655;DHT22;6392;44.644;11.448;2022-12-18T03:03:37;6.80;99.90
12655;DHT22;6392;44.644;11.448;2022-12-18T03:06:08;6.80;99.90
12655;DHT22;6392;44.644;11.448;2022-12-18T03:08:41;6.80;99.90
12655;DHT22;6392;44.644;11.448;2022-12-18T03:11:10;6.70;99.90
12655;DHT22;6392;44.644;11.448;2022-12-18T03:13:40;6.70;99.90
12655;DHT22;6392;44.644;11.448;2022-12-18T03:16:14;6.70;99.90
12655;DHT22;6392;44.644;11.448;2022-12-18T03:18:45;6.70;99.90
12655;DHT22;6392;44.644;11.448;2022-12-18T03:21:16;6.70;99.90
12655;DHT22;6392;44.644;11.448;2022-12-18T03:23:46;6.60;99.90
12655;DHT22;6392;44.644;11.448;2022-12-18T03:26:16;6.60;99.90
12655;DHT22;6392;44.644;11.448;2022-12-18T03:28:48;6.60;99.90
12655;DHT22;6392;44.644;11.448;2022-12-18T03:31:19;6.70;99.90
12655;DHT22;6392;44.644;11.448;2022-12-18T03:33:50;6.60;99.90
12655;DHT22;6392;44.644;11.448;2022-12-18T03:36:18;6.60;99.90
12655;DHT22;6392;44.644;11.448;2022-12-18T03:38:45;6.60;99.90
12655;DHT22;6392;44.644;11.448;2022-12-18T03:41:17;6.60;99.90
12655;DHT22;6392;44.644;11.448;2022-12-18T03:43:50;6.60;99.90
12655;DHT22;6392;44.644;11.448;2022-12-18T03:46:25;6.60;99.90
12655;DHT22;6392;44.644;11.448;2022-12-18T03:48:59;6.60;99.90
12655;DHT22;6392;44.644;11.448;2022-12-18T03:51:34;6.60;99.90
12655;DHT22;6392;44.644;11.448;2022-12-18T03:54:05;6.60;99.90
12655;DHT22;6392;44.644;11.448;2022-12-18T03:56:36;6.60;99.90
12655;DHT22;6392;44.644;11.448;2022-12-18T03:59:04;6.60;99.90
12655;DHT22;6392;44.644;11.448;2022-12-18T04:01:37;6.60;99.90
12655;DHT22;6392;44.644;11.448;2022-12-18T04:04:05;6.60;99.90
12655;DHT22;6392;44.644;11.448;2022-12-18T04:06:37;6.60;99.90
12655;DHT22;6392;44.644;11.448;2022-12-18T04:09:05;6.60;99.90
12655;DHT22;6392;44.644;11.448;2022-12-18T04:11:33;6.60;99.90
12655;DHT22;6392;44.644;11.448;2022-12-18T04:14:00;6.60;99.90
12655;DHT22;6392;44.644;11.448;2022-12-18T04:16:27;6.60;99.90
12655;DHT22;6392;44.644;11.448;2022-12-18T04:18:56;6.60;99.90
12655;DHT22;6392;44.644;11.448;2022-12-18T04:21:23;6.60;99.90
12655;DHT22;6392;44.644;11.448;2022-12-18T04:23:50;6.60;99.90
12655;DHT22;6392;44.644;11.448;2022-12-18T04:26:17;6.50;99.90
12655;DHT22;6392;44.644;11.448;2022-12-18T04:28:44;6.50;99.90
12655;DHT22;6392;44.644;11.448;2022-12-18T04:31:11;6.40;99.90
12655;DHT22;6392;44.644;11.448;2022-12-18T04:33:38;6.40;99.90
12655;DHT22;6392;44.644;11.448;2022-12-18T04:36:07;6.40;99.90
12655;DHT22;6392;44.644;11.448;2022-12-18T04:38:34;6.40;99.90
12655;DHT22;6392;44.644;11.448;2022-12-18T04:41:01;6.40;99.90
12655;DHT22;6392;44.644;11.448;2022-12-18T04:43:28;6.30;99.90
12655;DHT22;6392;44.644;11.448;2022-12-18T04:46:02;6.30;99.90
12655;DHT22;6392;44.644;11.448;2022-12-18T04:48:29;6.30;99.90
12655;DHT22;6392;44.644;11.448;2022-12-18T04:50:56;6.30;99.90
12655;DHT22;6392;44.644;11.448;2022-12-18T04:53:24;6.20;99.90
12655;DHT22;6392;44.644;11.448;2022-12-18T04:56:02;6.20;99.90
12655;DHT22;6392;44.644;11.448;2022-12-18T04:58:29;6.20;99.90
12655;DHT22;6392;44.644;11.448;2022-12-18T05:00:57;6.20;99.90
12655;DHT22;6392;44.644;11.448;2022-12-18T05:03:24;6.20;99.90
12655;DHT22;6392;44.644;11.448;2022-12-18T05:05:51;6.20;99.90
12655;DHT22;6392;44.644;11.448;2022-12-18T05:08:19;6.20;99.90
12655;DHT22;6392;44.644;11.448;2022-12-18T05:10:47;6.20;99.90
12655;DHT22;6392;44.644;11.448;2022-12-18T05:13:14;6.20;99.90
12655;DHT22;6392;44.644;11.448;2022-12-18T05:15:41;6.20;99.90
12655;DHT22;6392;44.644;11.448;2022-12-18T05:18:08;6.20;99.90
12655;DHT22;6392;44.644;11.448;2022-12-18T05:20:35;6.20;99.90
12655;DHT22;6392;44.644;11.448;2022-12-18T05:23:02;6.20;99.90
12655;DHT22;6392;44.644;11.448;2022-12-18T05:25:29;6.10;99.90
12655;DHT22;6392;44.644;11.448;2022-12-18T05:27:58;6.10;99.90
12655;DHT22;6392;44.644;11.448;2022-12-18T05:30:25;6.10;99.90
12655;DHT22;6392;44.644;11.448;2022-12-18T05:32:53;6.20;99.90
12655;DHT22;6392;44.644;11.448;2022-12-18T05:35:20;6.10;99.90
12655;DHT22;6392;44.644;11.448;2022-12-18T05:37:47;6.10;99.90
12655;DHT22;6392;44.644;11.448;2022-12-18T05:40:14;6.20;99.90
12655;DHT22;6392;44.644;11.448;2022-12-18T05:42:41;6.10;99.90
12655;DHT22;6392;44.644;11.448;2022-12-18T05:45:10;6.10;99.90
12655;DHT22;6392;44.644;11.448;2022-12-18T05:47:37;6.10;99.90
12655;DHT22;6392;44.644;11.448;2022-12-18T05:50:05;6.10;99.90
12655;DHT22;6392;44.644;11.448;2022-12-18T05:52:32;6.10;99.90
12655;DHT22;6392;44.644;11.448;2022-12-18T05:54:59;6.10;99.90
12655;DHT22;6392;44.644;11.448;2022-12-18T05:57:26;6.10;99.90
12655;DHT22;6392;44.644;11.448;2022-12-18T05:59:53;6.10;99.90
12655;DHT22;6392;44.644;11.448;2022-12-18T06:02:22;6.10;99.90
12655;DHT22;6392;44.644;11.448;2022-12-18T06:04:49;6.00;99.90
12655;DHT22;6392;44.644;11.448;2022-12-18T06:07:16;6.00;99.90
12655;DHT22;6392;44.644;11.448;2022-12-18T06:09:43;6.00;99.90
12655;DHT22;6392;44.644;11.448;2022-12-18T06:12:10;5.90;99.90
12655;DHT22;6392;44.644;11.448;2022-12-18T06:14:37;5.90;99.90
12655;DHT22;6392;44.644;11.448;2022-12-18T06:17:04;5.90;99.90
12655;DHT22;6392;44.644;11.448;2022-12-18T06:19:32;5.90;99.90
12655;DHT22;6392;44.644;11.448;2022-12-18T06:21:59;5.90;99.90
12655;DHT22;6392;44.644;11.448;2022-12-18T06:24:26;5.90;99.90
12655;DHT22;6392;44.644;11.448;2022-12-18T06:26:53;5.90;99.90
12655;DHT22;6392;44.644;11.448;2022-12-18T06:29:21;5.90;99.90
12655;DHT22;6392;44.644;11.448;2022-12-18T06:31:48;5.90;99.90
12655;DHT22;6392;44.644;11.448;2022-12-18T06:34:15;5.80;99.90
12655;DHT22;6392;44.644;11.448;2022-12-18T06:36:43;5.80;99.90
12655;DHT22;6392;44.644;11.448;2022-12-18T06:39:10;5.80;99.90
12655;DHT22;6392;44.644;11.448;2022-12-18T06:41:37;5.80;99.90
12655;DHT22;6392;44.644;11.448;2022-12-18T06:44:07;5.80;99.90
12655;DHT22;6392;44.644;11.448;2022-12-18T06:46:34;5.80;99.90
12655;DHT22;6392;44.644;11.448;2022-12-18T06:49:02;5.70;99.90
12655;DHT22;6392;44.644;11.448;2022-12-18T06:51:29;5.80;99.90
12655;DHT22;6392;44.644;11.448;2022-12-18T06:53:58;5.80;99.90
12655;DHT22;6392;44.644;11.448;2022-12-18T06:56:25;5.70;99.90
12655;DHT22;6392;44.644;11.448;2022-12-18T06:58:52;5.70;99.90
12655;DHT22;6392;44.644;11.448;2022-12-18T07:01:21;5.70;99.90
12655;DHT22;6392;44.644;11.448;2022-12-18T07:03:51;5.70;99.90
12655;DHT22;6392;44.644;11.448;2022-12-18T07:06:20;5.70;99.90
12655;DHT22;6392;44.644;11.448;2022-12-18T07:08:48;5.70;99.90
12655;DHT22;6392;44.644;11.448;2022-12-18T07:11:17;5.70;99.90
12655;DHT22;6392;44.644;11.448;2022-12-18T07:13:45;5.70;99.90
12655;DHT22;6392;44.644;11.448;2022-12-18T07:16:14;5.70;99.90
12655;DHT22;6392;44.644;11.448;2022-12-18T07:18:41;5.70;99.90
12655;DHT22;6392;44.644;11.448;2022-12-18T07:21:13;5.70;99.90
12655;DHT22;6392;44.644;11.448;2022-12-18T07:23:40;5.70;99.90
12655;DHT22;6392;44.644;11.448;2022-12-18T07:26:09;5.70;99.90
12655;DHT22;6392;44.644;11.448;2022-12-18T07:28:38;5.60;99.90
12655;DHT22;6392;44.644;11.448;2022-12-18T07:31:06;5.60;99.90
12655;DHT22;6392;44.644;11.448;2022-12-18T07:33:33;5.70;99.90
12655;DHT22;6392;44.644;11.448;2022-12-18T07:36:01;5.70;99.90
12655;DHT22;6392;44.644;11.448;2022-12-18T07:38:28;5.90;99.90
12655;DHT22;6392;44.644;11.448;2022-12-18T07:41:00;5.90;99.90
12655;DHT22;6392;44.644;11.448;2022-12-18T07:43:27;6.00;99.90
12655;DHT22;6392;44.644;11.448;2022-12-18T07:45:55;6.00;99.90
12655;DHT22;6392;44.644;11.448;2022-12-18T07:48:23;6.00;99.90
12655;DHT22;6392;44.644;11.448;2022-12-18T07:50:50;6.00;99.90
12655;DHT22;6392;44.644;11.448;2022-12-18T07:53:17;5.90;99.90
12655;DHT22;6392;44.644;11.448;2022-12-18T07:55:44;5.90;99.90
12655;DHT22;6392;44.644;11.448;2022-12-18T07:58:11;5.90;99.90
12655;DHT22;6392;44.644;11.448;2022-12-18T08:00:38;5.90;99.90
12655;DHT22;6392;44.644;11.448;2022-12-18T08:03:06;5.90;99.90
12655;DHT22;6392;44.644;11.448;2022-12-18T08:05:33;5.90;99.90
12655;DHT22;6392;44.644;11.448;2022-12-18T08:08:00;6.00;99.90
12655;DHT22;6392;44.644;11.448;2022-12-18T08:10:28;6.00;99.90
12655;DHT22;6392;44.644;11.448;2022-12-18T08:12:55;6.00;99.90
12655;DHT22;6392;44.644;11.448;2022-12-18T08:15:22;6.00;99.90
12655;DHT22;6392;44.644;11.448;2022-12-18T08:17:49;6.10;99.90
12655;DHT22;6392;44.644;11.448;2022-12-18T08:20:17;6.10;99.90
12655;DHT22;6392;44.644;11.448;2022-12-18T08:22:44;6.20;99.90
12655;DHT22;6392;44.644;11.448;2022-12-18T08:25:11;6.20;99.90
12655;DHT22;6392;44.644;11.448;2022-12-18T08:27:38;6.20;99.90
12655;DHT22;6392;44.644;11.448;2022-12-18T08:30:07;6.30;99.90
12655;DHT22;6392;44.644;11.448;2022-12-18T08:32:34;6.30;99.90
12655;DHT22;6392;44.644;11.448;2022-12-18T08:35:01;6.30;99.90
12655;DHT22;6392;44.644;11.448;2022-12-18T08:37:29;6.40;99.90
12655;DHT22;6392;44.644;11.448;2022-12-18T08:39:56;6.40;99.90
12655;DHT22;6392;44.644;11.448;2022-12-18T08:42:23;6.40;99.90
12655;DHT22;6392;44.644;11.448;2022-12-18T08:45:16;6.40;99.90
12655;DHT22;6392;44.644;11.448;2022-12-18T08:47:43;6.50;99.90
12655;DHT22;6392;44.644;11.448;2022-12-18T08:50:11;6.50;99.90
12655;DHT22;6392;44.644;11.448;2022-12-18T08:52:39;6.50;99.90
12655;DHT22;6392;44.644;11.448;2022-12-18T08:55:08;6.60;99.90
12655;DHT22;6392;44.644;11.448;2022-12-18T08:57:35;6.50;99.90
12655;DHT22;6392;44.644;11.448;2022-12-18T09:00:03;6.60;99.90
12655;DHT22;6392;44.644;11.448;2022-12-18T09:02:30;6.60;99.90
12655;DHT22;6392;44.644;11.448;2022-12-18T09:04:57;6.60;99.90
12655;DHT22;6392;44.644;11.448;2022-12-18T09:07:25;6.60;99.90
12655;DHT22;6392;44.644;11.448;2022-12-18T09:09:53;6.70;99.90
12655;DHT22;6392;44.644;11.448;2022-12-18T09:12:20;6.70;99.90
12655;DHT22;6392;44.644;11.448;2022-12-18T09:14:47;6.70;99.90
12655;DHT22;6392;44.644;11.448;2022-12-18T09:17:15;6.80;99.90
12655;DHT22;6392;44.644;11.448;2022-12-18T09:19:42;6.80;99.90
12655;DHT22;6392;44.644;11.448;2022-12-18T09:22:09;6.80;99.90
12655;DHT22;6392;44.644;11.448;2022-12-18T09:24:36;6.90;99.90
12655;DHT22;6392;44.644;11.448;2022-12-18T09:27:05;6.90;99.90
12655;DHT22;6392;44.644;11.448;2022-12-18T09:29:32;7.00;99.90
12655;DHT22;6392;44.644;11.448;2022-12-18T09:31:59;6.30;99.90
12655;DHT22;6392;44.644;11.448;2022-12-18T09:34:26;7.00;99.90
12655;DHT22;6392;44.644;11.448;2022-12-18T09:36:53;7.00;99.90
12655;DHT22;6392;44.644;11.448;2022-12-18T09:39:21;7.00;99.90
12655;DHT22;6392;44.644;11.448;2022-12-18T09:41:51;7.00;99.90
12655;DHT22;6392;44.644;11.448;2022-12-18T09:44:27;7.10;99.90
12655;DHT22;6392;44.644;11.448;2022-12-18T09:47:08;7.10;99.90
12655;DHT22;6392;44.644;11.448;2022-12-18T09:49:40;7.10;99.90
12655;DHT22;6392;44.644;11.448;2022-12-18T09:52:14;7.10;99.90
12655;DHT22;6392;44.644;11.448;2022-12-18T09:54:44;7.20;99.90
12655;DHT22;6392;44.644;11.448;2022-12-18T09:57:14;7.20;99.90
12655;DHT22;6392;44.644;11.448;2022-12-18T09:59:48;7.20;99.90
12655;DHT22;6392;44.644;11.448;2022-12-18T10:02:18;7.20;99.90
12655;DHT22;6392;44.644;11.448;2022-12-18T10:05:03;7.30;99.90
12655;DHT22;6392;44.644;11.448;2022-12-18T10:07:38;7.30;99.90
12655;DHT22;6392;44.644;11.448;2022-12-18T10:10:15;7.30;99.90
12655;DHT22;6392;44.644;11.448;2022-12-18T10:12:52;7.30;99.90
12655;DHT22;6392;44.644;11.448;2022-12-18T10:15:29;7.40;99.90
12655;DHT22;6392;44.644;11.448;2022-12-18T10:18:05;7.40;99.90
12655;DHT22;6392;44.644;11.448;2022-12-18T10:20:41;7.40;99.90
12655;DHT22;6392;44.644;11.448;2022-12-18T10:23:17;7.40;99.90
12655;DHT22;6392;44.644;11.448;2022-12-18T10:25:52;7.40;99.90
12655;DHT22;6392;44.644;11.448;2022-12-18T10:28:21;7.50;99.90
12655;DHT22;6392;44.644;11.448;2022-12-18T10:30:50;7.50;99.90
12655;DHT22;6392;44.644;11.448;2022-12-18T10:33:19;7.50;99.90
12655;DHT22;6392;44.644;11.448;2022-12-18T10:35:47;7.50;99.90
12655;DHT22;6392;44.644;11.448;2022-12-18T10:38:24;7.60;99.90
12655;DHT22;6392;44.644;11.448;2022-12-18T10:40:54;7.60;99.90
12655;DHT22;6392;44.644;11.448;2022-12-18T10:43:24;7.50;99.90
12655;DHT22;6392;44.644;11.448;2022-12-18T10:46:11;7.60;99.90
12655;DHT22;6392;44.644;11.448;2022-12-18T10:48:49;7.70;99.90
12655;DHT22;6392;44.644;11.448;2022-12-18T10:51:21;7.70;99.90
12655;DHT22;6392;44.644;11.448;2022-12-18T10:53:57;7.80;99.90
12655;DHT22;6392;44.644;11.448;2022-12-18T10:56:26;7.90;99.90
12655;DHT22;6392;44.644;11.448;2022-12-18T10:58:59;7.90;99.90
12655;DHT22;6392;44.644;11.448;2022-12-18T11:01:28;8.00;99.90
12655;DHT22;6392;44.644;11.448;2022-12-18T11:04:07;8.00;99.90
12655;DHT22;6392;44.644;11.448;2022-12-18T11:06:56;8.00;99.90
12655;DHT22;6392;44.644;11.448;2022-12-18T11:09:25;8.00;99.90
12655;DHT22;6392;44.644;11.448;2022-12-18T11:11:53;8.00;99.90
12655;DHT22;6392;44.644;11.448;2022-12-18T11:14:23;8.10;99.90
12655;DHT22;6392;44.644;11.448;2022-12-18T11:16:52;8.10;99.90
12655;DHT22;6392;44.644;11.448;2022-12-18T11:19:26;8.10;99.90
12655;DHT22;6392;44.644;11.448;2022-12-18T11:21:54;8.10;99.90
12655;DHT22;6392;44.644;11.448;2022-12-18T11:24:29;8.20;99.90
12655;DHT22;6392;44.644;11.448;2022-12-18T11:26:58;8.20;99.90
12655;DHT22;6392;44.644;11.448;2022-12-18T11:29:32;8.20;99.90
12655;DHT22;6392;44.644;11.448;2022-12-18T11:32:35;8.20;99.90
12655;DHT22;6392;44.644;11.448;2022-12-18T11:35:15;8.30;99.90
12655;DHT22;6392;44.644;11.448;2022-12-18T11:37:46;8.30;99.90
12655;DHT22;6392;44.644;11.448;2022-12-18T11:40:17;8.40;99.90
12655;DHT22;6392;44.644;11.448;2022-12-18T11:42:50;8.40;99.90
12655;DHT22;6392;44.644;11.448;2022-12-18T11:45:26;8.40;99.90
12655;DHT22;6392;44.644;11.448;2022-12-18T11:47:58;8.40;99.90
12655;DHT22;6392;44.644;11.448;2022-12-18T11:50:31;8.50;99.90
12655;DHT22;6392;44.644;11.448;2022-12-18T11:53:01;8.50;99.90
12655;DHT22;6392;44.644;11.448;2022-12-18T11:55:36;8.60;99.90
12655;DHT22;6392;44.644;11.448;2022-12-18T11:58:09;8.60;99.90
12655;DHT22;6392;44.644;11.448;2022-12-18T12:00:42;8.60;99.90
12655;DHT22;6392;44.644;11.448;2022-12-18T12:03:42;8.60;99.90
12655;DHT22;6392;44.644;11.448;2022-12-18T12:06:15;8.70;99.90
12655;DHT22;6392;44.644;11.448;2022-12-18T12:08:56;8.70;99.90
12655;DHT22;6392;44.644;11.448;2022-12-18T12:11:35;8.80;99.90
12655;DHT22;6392;44.644;11.448;2022-12-18T12:14:30;8.80;99.90
12655;DHT22;6392;44.644;11.448;2022-12-18T12:17:05;8.80;99.90
12655;DHT22;6392;44.644;11.448;2022-12-18T12:19:44;8.80;99.90
12655;DHT22;6392;44.644;11.448;2022-12-18T12:22:20;8.80;99.90
12655;DHT22;6392;44.644;11.448;2022-12-18T12:25:00;8.90;99.90
12655;DHT22;6392;44.644;11.448;2022-12-18T12:27:36;8.90;99.90
12655;DHT22;6392;44.644;11.448;2022-12-18T12:30:07;8.90;99.90
12655;DHT22;6392;44.644;11.448;2022-12-18T12:32:45;9.00;99.90
12655;DHT22;6392;44.644;11.448;2022-12-18T12:35:25;9.00;99.90
12655;DHT22;6392;44.644;11.448;2022-12-18T12:38:04;9.00;99.90
12655;DHT22;6392;44.644;11.448;2022-12-18T12:40:34;9.10;99.90
12655;DHT22;6392;44.644;11.448;2022-12-18T12:43:07;9.10;99.90
12655;DHT22;6392;44.644;11.448;2022-12-18T12:45:43;9.20;99.90
12655;DHT22;6392;44.644;11.448;2022-12-18T12:48:17;9.30;99.90
12655;DHT22;6392;44.644;11.448;2022-12-18T12:50:47;9.30;99.90
12655;DHT22;6392;44.644;11.448;2022-12-18T12:53:23;9.30;99.90
12655;DHT22;6392;44.644;11.448;2022-12-18T12:55:52;9.30;99.90
12655;DHT22;6392;44.644;11.448;2022-12-18T12:58:28;9.30;99.90
12655;DHT22;6392;44.644;11.448;2022-12-18T13:01:05;9.30;99.90
12655;DHT22;6392;44.644;11.448;2022-12-18T13:03:43;9.40;99.90
12655;DHT22;6392;44.644;11.448;2022-12-18T13:06:19;9.50;99.90
12655;DHT22;6392;44.644;11.448;2022-12-18T13:08:55;9.50;99.90
12655;DHT22;6392;44.644;11.448;2022-12-18T13:11:37;9.50;99.90
12655;DHT22;6392;44.644;11.448;2022-12-18T13:14:26;9.60;99.90
12655;DHT22;6392;44.644;11.448;2022-12-18T13:17:24;9.60;99.90
12655;DHT22;6392;44.644;11.448;2022-12-18T13:20:08;9.60;99.90
12655;DHT22;6392;44.644;11.448;2022-12-18T13:22:38;9.70;99.90
12655;DHT22;6392;44.644;11.448;2022-12-18T13:25:31;9.70;99.90
12655;DHT22;6392;44.644;11.448;2022-12-18T13:28:10;9.80;99.90
12655;DHT22;6392;44.644;11.448;2022-12-18T13:30:52;9.80;99.90
12655;DHT22;6392;44.644;11.448;2022-12-18T13:33:40;9.90;99.90
12655;DHT22;6392;44.644;11.448;2022-12-18T13:36:17;9.90;99.90
12655;DHT22;6392;44.644;11.448;2022-12-18T13:39:20;9.90;99.90
12655;DHT22;6392;44.644;11.448;2022-12-18T13:41:49;10.00;99.90
12655;DHT22;6392;44.644;11.448;2022-12-18T13:44:25;10.00;99.90
12655;DHT22;6392;44.644;11.448;2022-12-18T13:46:52;10.10;99.90
12655;DHT22;6392;44.644;11.448;2022-12-18T13:49:23;10.20;99.90
12655;DHT22;6392;44.644;11.448;2022-12-18T13:51:52;10.20;99.90
12655;DHT22;6392;44.644;11.448;2022-12-18T13:54:25;10.20;99.90
12655;DHT22;6392;44.644;11.448;2022-12-18T13:56:54;10.20;99.90
12655;DHT22;6392;44.644;11.448;2022-12-18T13:59:22;10.20;99.90
12655;DHT22;6392;44.644;11.448;2022-12-18T14:01:52;10.20;99.90
12655;DHT22;6392;44.644;11.448;2022-12-18T14:04:27;10.10;99.90
12655;DHT22;6392;44.644;11.448;2022-12-18T14:07:01;10.10;99.90
12655;DHT22;6392;44.644;11.448;2022-12-18T14:09:34;10.00;99.90
12655;DHT22;6392;44.644;11.448;2022-12-18T14:12:03;9.90;99.90
12655;DHT22;6392;44.644;11.448;2022-12-18T14:14:45;9.90;99.90
12655;DHT22;6392;44.644;11.448;2022-12-18T14:17:14;9.80;99.90
12655;DHT22;6392;44.644;11.448;2022-12-18T14:19:43;9.80;99.90
12655;DHT22;6392;44.644;11.448;2022-12-18T14:22:16;9.80;99.90
12655;DHT22;6392;44.644;11.448;2022-12-18T14:24:45;9.80;99.90
12655;DHT22;6392;44.644;11.448;2022-12-18T14:27:21;9.80;99.90
12655;DHT22;6392;44.644;11.448;2022-12-18T14:29:49;9.90;99.90
12655;DHT22;6392;44.644;11.448;2022-12-18T14:32:17;9.90;99.90
12655;DHT22;6392;44.644;11.448;2022-12-18T14:34:47;9.80;99.90
12655;DHT22;6392;44.644;11.448;2022-12-18T14:37:16;9.80;99.90
12655;DHT22;6392;44.644;11.448;2022-12-18T14:39:56;9.80;99.90
12655;DHT22;6392;44.644;11.448;2022-12-18T14:42:24;9.70;99.90
12655;DHT22;6392;44.644;11.448;2022-12-18T14:47:53;9.70;99.90
12655;DHT22;6392;44.644;11.448;2022-12-18T14:50:20;9.70;99.90
12655;DHT22;6392;44.644;11.448;2022-12-18T14:52:47;9.60;99.90
12655;DHT22;6392;44.644;11.448;2022-12-18T14:55:17;9.60;99.90
12655;DHT22;6392;44.644;11.448;2022-12-18T14:57:45;9.60;99.90
12655;DHT22;6392;44.644;11.448;2022-12-18T15:00:16;9.50;99.90
12655;DHT22;6392;44.644;11.448;2022-12-18T15:02:45;9.50;99.90
12655;DHT22;6392;44.644;11.448;2022-12-18T15:05:19;9.40;99.90
12655;DHT22;6392;44.644;11.448;2022-12-18T15:07:48;9.40;99.90
12655;DHT22;6392;44.644;11.448;2022-12-18T15:10:19;9.40;99.90
12655;DHT22;6392;44.644;11.448;2022-12-18T15:12:47;9.40;99.90
12655;DHT22;6392;44.644;11.448;2022-12-18T15:15:45;9.50;99.90
12655;DHT22;6392;44.644;11.448;2022-12-18T15:18:14;9.40;99.90
12655;DHT22;6392;44.644;11.448;2022-12-18T15:20:44;9.30;99.90
12655;DHT22;6392;44.644;11.448;2022-12-18T15:23:18;9.10;99.90
12655;DHT22;6392;44.644;11.448;2022-12-18T15:25:49;9.10;99.90
12655;DHT22;6392;44.644;11.448;2022-12-18T15:28:24;9.00;99.90
12655;DHT22;6392;44.644;11.448;2022-12-18T15:31:02;8.90;99.90
12655;DHT22;6392;44.644;11.448;2022-12-18T15:33:32;8.90;99.90
12655;DHT22;6392;44.644;11.448;2022-12-18T15:36:00;8.80;99.90
12655;DHT22;6392;44.644;11.448;2022-12-18T15:38:28;8.80;99.90
12655;DHT22;6392;44.644;11.448;2022-12-18T15:40:57;8.80;99.90
12655;DHT22;6392;44.644;11.448;2022-12-18T15:43:25;8.70;99.90
12655;DHT22;6392;44.644;11.448;2022-12-18T15:46:03;8.60;99.90
12655;DHT22;6392;44.644;11.448;2022-12-18T15:48:32;8.40;99.90
12655;DHT22;6392;44.644;11.448;2022-12-18T15:51:00;8.30;99.90
12655;DHT22;6392;44.644;11.448;2022-12-18T15:53:30;8.30;99.90
12655;DHT22;6392;44.644;11.448;2022-12-18T15:55:59;8.20;99.90
12655;DHT22;6392;44.644;11.448;2022-12-18T15:58:43;8.20;99.90
12655;DHT22;6392;44.644;11.448;2022-12-18T16:01:11;8.20;99.90
12655;DHT22;6392;44.644;11.448;2022-12-18T16:03:38;8.20;99.90
12655;DHT22;6392;44.644;11.448;2022-12-18T16:06:06;8.20;99.90
12655;DHT22;6392;44.644;11.448;2022-12-18T16:08:33;8.10;99.90
12655;DHT22;6392;44.644;11.448;2022-12-18T16:11:02;7.90;99.90
12655;DHT22;6392;44.644;11.448;2022-12-18T16:13:29;7.80;99.90